METAR Data
IDs: Format: Raw Decoded Include TAF

Data at: 1946 UTC 12 Dec 2018

METAR for:KCMH (Columbus Intl, OH, US)
Text:KCMH 121851Z 20010G20KT 10SM SCT100 BKN200 07/M03 A2993 RMK AO2 SLP143 T00671033
Temperature: 6.7°C ( 44°F)
Dewpoint: -3.3°C ( 26°F) [RH = 49%]
Pressure (altimeter):29.93 inches Hg (1013.6 mb) [Sea level pressure: 1014.3 mb]
Winds:from the SSW (200 degrees) at 12 MPH (10 knots; 5.1 m/s) gusting to 23 MPH (20 knots; 10.3 m/s)
Visibility:10 or more sm (16+ km)
Ceiling:20000 feet AGL
Clouds: scattered clouds at 10000 feet AGL, broken clouds at 20000 feet AGL